الصفحة الرئيسية
METAR-TAF:

METAR-TAF

مطار :

Middleton Island, ألاسكا, الولايات المتحدة

دائرة عرض: 59-26N, خط طول: 146-18W, ارتفاع: 27 متر

مراقبة الطقس الحالي

تاريخ ووقت الإصدار 19 دقيقة قبل الساعة 17:51UTC
ريح 18 عقدة من الشرق/الجنوب الشرقي تتزايد حتى 27 عقدة
درجة الحرارة 1°درجة مئوية
الرطوبة 80%
ضغط 1016 hPa
الرؤية: 16.1 كم
غيوم مفككة على ارتفاع 1900 قدم
ملبد بالغيوم على ارتفاع 2600 قدم
ثلوج خفيفة

METAR: PAMD 041751Z AUTO 11018G27KT 10SM -SN BKN019 OVC026 01/M02 A3000 RMK AO2 PK WND 12027/1746 RAB1652E47SNE1652B47 SLP147 6//// T00111022 10011 20006 56003 FZRANO PNO $

زمن: 09:10 (18:10 UTC)


TAF: مفقودة

أرصاد الطقس والتوقعات من أكثر من 4000 مطار (تقارير الطقس للمطار METAR والتنبؤ بالطقس بالمطارTAF).

المحطات المتاحة هي النقط الصفراء والحمراء على الخريطة.

حرك المؤشر فوق النقطة لمعرفة اسم المحطة.

ثم انقر لمعرفة أرصاد وتوقعات الطقس.

لتغيير الخارطة: اضغط على الأزرار الخضراء مع رمز الصليب الأسود للتكبير. على الزر الأخضر مع شرطة للتصغير، أو على الأسهم الخضراء للخرائط المجاورة.


METAR-TAF: